Terminal Aerodrome Forecast
Issued by NWS

Home | Current Version | Previous Version | Text Only | Print | Product List | Glossary On
Versions: 1 2 3 4 5 6 7 8 9 10 11 12 13 14 15
000
FTUS44 KEPZ 050228 AAA
TAFTCS
TAF AMD
KTCS 050228Z 0502/0524 15010KT P6SM VCTS SCT080CB SCT150 OVC250
      TEMPO 0502/0504 VRB15G25KT TSRA BKN060CB OVC100
     FM051000 30005KT P6SM SCT080 OVC250
     FM051700 17008KT P6SM SCT060 BKN250
     FM052100 20008KT P6SM VCTS SCT060CB BKN200=

USA.gov is the U.S. government's official web portal to all federal, state and local government web resources and services.